sensor_id;sensor_type;location;lat;lon;timestamp;pressure;altitude;pressure_sealevel;temperature;humidity
44359;BME280;30077;52.474;13.326;2022-11-13T00:04:35;102498.56;;;7.84;100.00
44359;BME280;30077;52.474;13.326;2022-11-13T00:09:36;102492.31;;;7.93;100.00
44359;BME280;30077;52.474;13.326;2022-11-13T00:14:36;102495.84;;;7.96;100.00
44359;BME280;30077;52.474;13.326;2022-11-13T00:19:37;102494.91;;;8.02;100.00
44359;BME280;30077;52.474;13.326;2022-11-13T00:24:37;102495.78;;;8.07;100.00
44359;BME280;30077;52.474;13.326;2022-11-13T00:29:37;102489.53;;;8.13;100.00
44359;BME280;30077;52.474;13.326;2022-11-13T00:34:37;102491.28;;;8.15;100.00
44359;BME280;30077;52.474;13.326;2022-11-13T00:39:38;102472.66;;;8.18;100.00
44359;BME280;30077;52.474;13.326;2022-11-13T00:44:38;102486.81;;;8.22;100.00
44359;BME280;30077;52.474;13.326;2022-11-13T00:49:38;102492.09;;;8.27;100.00
44359;BME280;30077;52.474;13.326;2022-11-13T00:54:39;102475.25;;;8.28;100.00
44359;BME280;30077;52.474;13.326;2022-11-13T00:59:40;102479.69;;;8.32;100.00
44359;BME280;30077;52.474;13.326;2022-11-13T01:04:41;102461.03;;;8.33;100.00
44359;BME280;30077;52.474;13.326;2022-11-13T01:09:41;102471.66;;;8.35;100.00
44359;BME280;30077;52.474;13.326;2022-11-13T01:14:42;102457.50;;;8.37;100.00
44359;BME280;30077;52.474;13.326;2022-11-13T01:19:42;102450.41;;;8.38;100.00
44359;BME280;30077;52.474;13.326;2022-11-13T01:24:43;102448.63;;;8.40;100.00
44359;BME280;30077;52.474;13.326;2022-11-13T01:29:43;102451.28;;;8.43;100.00
44359;BME280;30077;52.474;13.326;2022-11-13T01:34:43;102449.47;;;8.45;100.00
44359;BME280;30077;52.474;13.326;2022-11-13T01:39:44;102441.47;;;8.48;100.00
44359;BME280;30077;52.474;13.326;2022-11-13T01:44:50;102448.53;;;8.51;100.00
44359;BME280;30077;52.474;13.326;2022-11-13T01:49:54;102442.28;;;8.53;100.00
44359;BME280;30077;52.474;13.326;2022-11-13T01:54:59;102431.63;;;8.56;100.00
44359;BME280;30077;52.474;13.326;2022-11-13T02:00:06;102427.16;;;8.60;100.00
44359;BME280;30077;52.474;13.326;2022-11-13T02:05:07;102413.84;;;8.64;100.00
44359;BME280;30077;52.474;13.326;2022-11-13T02:10:08;102420.91;;;8.67;100.00
44359;BME280;30077;52.474;13.326;2022-11-13T02:15:09;102415.56;;;8.72;100.00
44359;BME280;30077;52.474;13.326;2022-11-13T02:20:09;102417.31;;;8.73;100.00
44359;BME280;30077;52.474;13.326;2022-11-13T02:25:10;102419.94;;;8.76;100.00
44359;BME280;30077;52.474;13.326;2022-11-13T02:30:22;102414.59;;;8.77;100.00
44359;BME280;30077;52.474;13.326;2022-11-13T02:35:26;102406.63;;;8.79;100.00
44359;BME280;30077;52.474;13.326;2022-11-13T02:40:28;102399.47;;;8.81;100.00
44359;BME280;30077;52.474;13.326;2022-11-13T02:45:29;102394.16;;;8.82;100.00
44359;BME280;30077;52.474;13.326;2022-11-13T02:50:30;102384.41;;;8.81;100.00
44359;BME280;30077;52.474;13.326;2022-11-13T02:55:30;102378.16;;;8.84;100.00
44359;BME280;30077;52.474;13.326;2022-11-13T03:00:31;102379.03;;;8.87;100.00
44359;BME280;30077;52.474;13.326;2022-11-13T03:05:31;102370.13;;;8.90;100.00
44359;BME280;30077;52.474;13.326;2022-11-13T03:10:32;102372.78;;;8.90;100.00
44359;BME280;30077;52.474;13.326;2022-11-13T03:15:33;102376.31;;;8.94;100.00
44359;BME280;30077;52.474;13.326;2022-11-13T03:20:41;102365.66;;;8.92;100.00
44359;BME280;30077;52.474;13.326;2022-11-13T03:25:43;102353.22;;;8.94;100.00
44359;BME280;30077;52.474;13.326;2022-11-13T03:30:43;102360.28;;;8.95;100.00
44359;BME280;30077;52.474;13.326;2022-11-13T03:35:43;102363.84;;;8.97;100.00
44359;BME280;30077;52.474;13.326;2022-11-13T03:40:44;102356.69;;;8.99;100.00
44359;BME280;30077;52.474;13.326;2022-11-13T03:45:45;102356.69;;;8.99;100.00
44359;BME280;30077;52.474;13.326;2022-11-13T03:50:48;102369.09;;;9.00;100.00
44359;BME280;30077;52.474;13.326;2022-11-13T03:55:49;102371.78;;;8.99;100.00
44359;BME280;30077;52.474;13.326;2022-11-13T04:00:50;102372.66;;;9.02;100.00
44359;BME280;30077;52.474;13.326;2022-11-13T04:05:50;102373.56;;;9.01;100.00
44359;BME280;30077;52.474;13.326;2022-11-13T04:10:50;102360.25;;;9.01;100.00
44359;BME280;30077;52.474;13.326;2022-11-13T04:15:50;102360.22;;;9.04;100.00
44359;BME280;30077;52.474;13.326;2022-11-13T04:20:51;102358.41;;;9.08;100.00
44359;BME280;30077;52.474;13.326;2022-11-13T04:25:51;102348.63;;;9.07;100.00
44359;BME280;30077;52.474;13.326;2022-11-13T04:30:53;102345.97;;;9.08;100.00
44359;BME280;30077;52.474;13.326;2022-11-13T04:35:53;102337.09;;;9.06;100.00
44359;BME280;30077;52.474;13.326;2022-11-13T04:40:53;102340.63;;;9.07;100.00
44359;BME280;30077;52.474;13.326;2022-11-13T04:46:14;102332.66;;;9.07;100.00
44359;BME280;30077;52.474;13.326;2022-11-13T04:51:14;102339.75;;;9.06;100.00
44359;BME280;30077;52.474;13.326;2022-11-13T04:56:14;102342.41;;;9.06;100.00
44359;BME280;30077;52.474;13.326;2022-11-13T05:01:15;102337.97;;;9.07;100.00
44359;BME280;30077;52.474;13.326;2022-11-13T05:06:15;102336.19;;;9.09;100.00
44359;BME280;30077;52.474;13.326;2022-11-13T05:11:15;102345.06;;;9.09;100.00
44359;BME280;30077;52.474;13.326;2022-11-13T05:16:15;102341.50;;;9.09;100.00
44359;BME280;30077;52.474;13.326;2022-11-13T05:21:16;102340.63;;;9.07;100.00
44359;BME280;30077;52.474;13.326;2022-11-13T05:26:16;102343.25;;;9.10;100.00
44359;BME280;30077;52.474;13.326;2022-11-13T05:31:16;102335.31;;;9.08;100.00
44359;BME280;30077;52.474;13.326;2022-11-13T05:36:17;102331.78;;;9.06;100.00
44359;BME280;30077;52.474;13.326;2022-11-13T05:41:19;102333.53;;;9.07;100.00
44359;BME280;30077;52.474;13.326;2022-11-13T05:46:23;102331.78;;;9.06;100.00
44359;BME280;30077;52.474;13.326;2022-11-13T05:51:26;102333.53;;;9.07;100.00
44359;BME280;30077;52.474;13.326;2022-11-13T05:56:32;102322.88;;;9.07;100.00
44359;BME280;30077;52.474;13.326;2022-11-13T06:01:35;102328.25;;;9.04;100.00
44359;BME280;30077;52.474;13.326;2022-11-13T06:06:35;102329.13;;;9.03;100.00
44359;BME280;30077;52.474;13.326;2022-11-13T06:11:36;102319.38;;;9.05;100.00
44359;BME280;30077;52.474;13.326;2022-11-13T06:16:37;102313.13;;;9.08;100.00
44359;BME280;30077;52.474;13.326;2022-11-13T06:21:38;102301.56;;;9.07;100.00
44359;BME280;30077;52.474;13.326;2022-11-13T06:26:39;102301.53;;;9.10;100.00
44359;BME280;30077;52.474;13.326;2022-11-13T06:31:39;102302.41;;;9.11;100.00
44359;BME280;30077;52.474;13.326;2022-11-13T06:36:40;102284.69;;;9.11;100.00
44359;BME280;30077;52.474;13.326;2022-11-13T06:41:40;102289.94;;;9.16;100.00
44359;BME280;30077;52.474;13.326;2022-11-13T06:46:40;102292.53;;;9.21;100.00
44359;BME280;30077;52.474;13.326;2022-11-13T06:51:41;102298.78;;;9.20;100.00
44359;BME280;30077;52.474;13.326;2022-11-13T06:56:41;102277.47;;;9.18;100.00
44359;BME280;30077;52.474;13.326;2022-11-13T07:01:44;102280.13;;;9.20;100.00
44359;BME280;30077;52.474;13.326;2022-11-13T07:06:44;102283.63;;;9.22;100.00
44359;BME280;30077;52.474;13.326;2022-11-13T07:11:44;102271.16;;;9.27;100.00
44359;BME280;30077;52.474;13.326;2022-11-13T07:16:46;102268.47;;;9.30;100.00
44359;BME280;30077;52.474;13.326;2022-11-13T07:21:46;102268.47;;;9.30;100.00
44359;BME280;30077;52.474;13.326;2022-11-13T07:26:48;102267.53;;;9.31;100.00
44359;BME280;30077;52.474;13.326;2022-11-13T07:31:48;102263.94;;;9.35;100.00
44359;BME280;30077;52.474;13.326;2022-11-13T07:36:48;102270.13;;;9.37;100.00
44359;BME280;30077;52.474;13.326;2022-11-13T07:41:49;102273.59;;;9.42;100.00
44359;BME280;30077;52.474;13.326;2022-11-13T07:46:49;102273.56;;;9.44;100.00
44359;BME280;30077;52.474;13.326;2022-11-13T07:51:49;102267.41;;;9.40;100.00
44359;BME280;30077;52.474;13.326;2022-11-13T07:56:49;102263.75;;;9.47;100.00
44359;BME280;30077;52.474;13.326;2022-11-13T08:01:50;102257.41;;;9.54;100.00
44359;BME280;30077;52.474;13.326;2022-11-13T08:06:50;102261.91;;;9.52;100.00
44359;BME280;30077;52.474;13.326;2022-11-13T08:11:50;102264.44;;;9.60;100.00
44359;BME280;30077;52.474;13.326;2022-11-13T08:16:50;102259.94;;;9.63;100.00
44359;BME280;30077;52.474;13.326;2022-11-13T08:21:51;102259.88;;;9.70;100.00
44359;BME280;30077;52.474;13.326;2022-11-13T08:26:52;102258.00;;;9.75;100.00
44359;BME280;30077;52.474;13.326;2022-11-13T08:31:52;102252.66;;;9.75;100.00
44359;BME280;30077;52.474;13.326;2022-11-13T08:36:53;102252.56;;;9.81;100.00
44359;BME280;30077;52.474;13.326;2022-11-13T08:41:53;102241.84;;;9.84;100.00
44359;BME280;30077;52.474;13.326;2022-11-13T08:46:54;102249.75;;;9.90;100.00
44359;BME280;30077;52.474;13.326;2022-11-13T08:51:54;102250.47;;;9.98;100.00
44359;BME280;30077;52.474;13.326;2022-11-13T08:56:55;102257.56;;;10.01;100.00
44359;BME280;30077;52.474;13.326;2022-11-13T09:01:55;102255.66;;;10.07;100.00
44359;BME280;30077;52.474;13.326;2022-11-13T09:06:58;102256.44;;;10.14;100.00
44359;BME280;30077;52.474;13.326;2022-11-13T09:11:59;102250.09;;;10.20;100.00
44359;BME280;30077;52.474;13.326;2022-11-13T09:16:59;102253.69;;;10.19;100.00
44359;BME280;30077;52.474;13.326;2022-11-13T09:22:00;102246.66;;;10.15;100.00
44359;BME280;30077;52.474;13.326;2022-11-13T09:27:00;102247.72;;;10.06;100.00
44359;BME280;30077;52.474;13.326;2022-11-13T09:32:00;102245.81;;;10.11;100.00
44359;BME280;30077;52.474;13.326;2022-11-13T09:37:01;102246.69;;;10.11;100.00
44359;BME280;30077;52.474;13.326;2022-11-13T09:42:12;102242.16;;;10.18;100.00
44359;BME280;30077;52.474;13.326;2022-11-13T09:47:20;102240.34;;;10.19;100.00
44359;BME280;30077;52.474;13.326;2022-11-13T09:52:35;102235.88;;;10.21;100.00
44359;BME280;30077;52.474;13.326;2022-11-13T10:03:00;102233.09;;;10.75;100.00
44359;BME280;30077;52.474;13.326;2022-11-13T10:08:13;102233.91;;;10.77;100.00
44359;BME280;30077;52.474;13.326;2022-11-13T10:13:31;102222.13;;;10.87;100.00
44359;BME280;30077;52.474;13.326;2022-11-13T10:18:35;102207.75;;;10.94;100.00
44359;BME280;30077;52.474;13.326;2022-11-13T10:23:37;102209.44;;;10.98;100.00
44359;BME280;30077;52.474;13.326;2022-11-13T10:28:37;102204.47;;;11.20;98.70
44359;BME280;30077;52.474;13.326;2022-11-13T10:33:39;102213.94;;;10.95;99.56
44359;BME280;30077;52.474;13.326;2022-11-13T10:38:47;102194.78;;;11.15;98.61
44359;BME280;30077;52.474;13.326;2022-11-13T10:44:14;102194.28;;;11.36;97.42
44359;BME280;30077;52.474;13.326;2022-11-13T10:49:21;102199.81;;;11.30;97.02
44359;BME280;30077;52.474;13.326;2022-11-13T10:54:27;102190.81;;;11.34;97.14
44359;BME280;30077;52.474;13.326;2022-11-13T10:59:39;102190.28;;;11.55;94.08
44359;BME280;30077;52.474;13.326;2022-11-13T11:04:41;102177.81;;;11.54;93.33
44359;BME280;30077;52.474;13.326;2022-11-13T11:09:43;102168.91;;;11.54;92.64
44359;BME280;30077;52.474;13.326;2022-11-13T11:14:59;102175.13;;;11.19;94.39
44359;BME280;30077;52.474;13.326;2022-11-13T11:25:42;102151.28;;;11.11;94.99
44359;BME280;30077;52.474;13.326;2022-11-13T11:30:50;102141.84;;;11.33;93.83
44359;BME280;30077;52.474;13.326;2022-11-13T11:35:56;102149.59;;;11.44;92.81
44359;BME280;30077;52.474;13.326;2022-11-13T11:41:08;102140.50;;;11.51;91.50
44359;BME280;30077;52.474;13.326;2022-11-13T11:46:18;102126.81;;;11.28;92.16
44359;BME280;30077;52.474;13.326;2022-11-13T11:56:41;102128.69;;;10.87;94.83
44359;BME280;30077;52.474;13.326;2022-11-13T12:03:09;102124.34;;;10.83;95.68
44359;BME280;30077;52.474;13.326;2022-11-13T12:18:40;102096.81;;;11.17;93.45
44359;BME280;30077;52.474;13.326;2022-11-13T12:29:48;102085.19;;;11.19;92.66
44359;BME280;30077;52.474;13.326;2022-11-13T12:34:57;102069.03;;;10.88;94.19
44359;BME280;30077;52.474;13.326;2022-11-13T12:40:06;102069.84;;;10.92;94.97
44359;BME280;30077;52.474;13.326;2022-11-13T12:45:45;102070.81;;;10.88;95.78
44359;BME280;30077;52.474;13.326;2022-11-13T12:50:56;102061.81;;;10.92;95.92
44359;BME280;30077;52.474;13.326;2022-11-13T12:56:00;102045.91;;;10.87;96.25
44359;BME280;30077;52.474;13.326;2022-11-13T13:01:13;102049.41;;;10.89;96.57
44359;BME280;30077;52.474;13.326;2022-11-13T13:06:24;102029.91;;;10.87;97.14
44359;BME280;30077;52.474;13.326;2022-11-13T13:11:45;102023.44;;;10.96;95.87
44359;BME280;30077;52.474;13.326;2022-11-13T13:16:48;102026.16;;;10.94;96.18
44359;BME280;30077;52.474;13.326;2022-11-13T13:21:48;102018.16;;;10.94;95.97
44359;BME280;30077;52.474;13.326;2022-11-13T13:26:49;102012.75;;;10.97;96.31
44359;BME280;30077;52.474;13.326;2022-11-13T13:32:11;102014.63;;;10.92;96.52
44359;BME280;30077;52.474;13.326;2022-11-13T13:37:24;102012.03;;;10.89;96.83
44359;BME280;30077;52.474;13.326;2022-11-13T13:47:46;102007.94;;;10.76;96.88
44359;BME280;30077;52.474;13.326;2022-11-13T13:52:47;102005.34;;;10.73;97.51
44359;BME280;30077;52.474;13.326;2022-11-13T13:57:48;102008.06;;;10.71;97.08
44359;BME280;30077;52.474;13.326;2022-11-13T14:02:51;102007.31;;;10.65;97.62
44359;BME280;30077;52.474;13.326;2022-11-13T14:07:54;101995.84;;;10.61;96.68
44359;BME280;30077;52.474;13.326;2022-11-13T14:12:55;101997.78;;;10.53;97.44
44359;BME280;30077;52.474;13.326;2022-11-13T14:18:11;102005.16;;;10.43;97.16
44359;BME280;30077;52.474;13.326;2022-11-13T14:23:30;101993.84;;;10.32;97.59
44359;BME280;30077;52.474;13.326;2022-11-13T14:28:33;101999.38;;;10.21;98.41
44359;BME280;30077;52.474;13.326;2022-11-13T14:33:44;101991.63;;;10.10;99.49
44359;BME280;30077;52.474;13.326;2022-11-13T14:38:47;101982.09;;;9.99;100.00
44359;BME280;30077;52.474;13.326;2022-11-13T14:43:50;101979.56;;;9.93;100.00
44359;BME280;30077;52.474;13.326;2022-11-13T14:48:52;101984.25;;;9.80;100.00
44359;BME280;30077;52.474;13.326;2022-11-13T14:53:58;101976.44;;;9.72;100.00
44359;BME280;30077;52.474;13.326;2022-11-13T14:59:23;101972.19;;;9.63;100.00
44359;BME280;30077;52.474;13.326;2022-11-13T15:04:24;101972.41;;;9.51;100.00
44359;BME280;30077;52.474;13.326;2022-11-13T15:09:25;101974.41;;;9.40;100.00
44359;BME280;30077;52.474;13.326;2022-11-13T15:14:26;101970.03;;;9.36;100.00
44359;BME280;30077;52.474;13.326;2022-11-13T15:19:30;101966.66;;;9.28;100.00
44359;BME280;30077;52.474;13.326;2022-11-13T15:24:34;101960.66;;;9.16;100.00
44359;BME280;30077;52.474;13.326;2022-11-13T15:29:34;101971.53;;;9.04;100.00
44359;BME280;30077;52.474;13.326;2022-11-13T15:34:36;101961.03;;;8.95;100.00
44359;BME280;30077;52.474;13.326;2022-11-13T15:39:36;101951.50;;;8.83;100.00
44359;BME280;30077;52.474;13.326;2022-11-13T15:44:39;101954.34;;;8.73;100.00
44359;BME280;30077;52.474;13.326;2022-11-13T15:49:41;101950.97;;;8.61;100.00
44359;BME280;30077;52.474;13.326;2022-11-13T15:54:41;101957.34;;;8.51;100.00
44359;BME280;30077;52.474;13.326;2022-11-13T15:59:42;101958.34;;;8.44;100.00
44359;BME280;30077;52.474;13.326;2022-11-13T16:04:43;101946.00;;;8.37;100.00
44359;BME280;30077;52.474;13.326;2022-11-13T16:09:44;101947.88;;;8.32;100.00
44359;BME280;30077;52.474;13.326;2022-11-13T16:14:45;101949.75;;;8.24;100.00
44359;BME280;30077;52.474;13.326;2022-11-13T16:19:50;101945.41;;;8.18;100.00
44359;BME280;30077;52.474;13.326;2022-11-13T16:24:51;101942.88;;;8.10;100.00
44359;BME280;30077;52.474;13.326;2022-11-13T16:29:51;101944.66;;;8.08;100.00
44359;BME280;30077;52.474;13.326;2022-11-13T16:34:52;101946.47;;;8.05;100.00
44359;BME280;30077;52.474;13.326;2022-11-13T16:39:52;101950.13;;;7.99;100.00
44359;BME280;30077;52.474;13.326;2022-11-13T16:44:52;101949.34;;;7.89;100.00
44359;BME280;30077;52.474;13.326;2022-11-13T16:49:53;101939.75;;;7.81;100.00
44359;BME280;30077;52.474;13.326;2022-11-13T16:54:55;101944.25;;;7.72;100.00
44359;BME280;30077;52.474;13.326;2022-11-13T16:59:55;101942.59;;;7.64;100.00
44359;BME280;30077;52.474;13.326;2022-11-13T17:04:56;101945.31;;;7.59;100.00
44359;BME280;30077;52.474;13.326;2022-11-13T17:09:56;101938.25;;;7.55;100.00
44359;BME280;30077;52.474;13.326;2022-11-13T17:14:56;101930.31;;;7.54;100.00
44359;BME280;30077;52.474;13.326;2022-11-13T17:19:56;101928.66;;;7.48;100.00
44359;BME280;30077;52.474;13.326;2022-11-13T17:24:57;101922.53;;;7.40;100.00
44359;BME280;30077;52.474;13.326;2022-11-13T17:29:57;101915.53;;;7.33;100.00
44359;BME280;30077;52.474;13.326;2022-11-13T17:34:57;101928.81;;;7.30;100.00
44359;BME280;30077;52.474;13.326;2022-11-13T17:39:58;101934.16;;;7.28;100.00
44359;BME280;30077;52.474;13.326;2022-11-13T17:44:58;101922.72;;;7.23;100.00
44359;BME280;30077;52.474;13.326;2022-11-13T17:49:58;101918.28;;;7.22;100.00
44359;BME280;30077;52.474;13.326;2022-11-13T17:54:58;101922.72;;;7.21;100.00
44359;BME280;30077;52.474;13.326;2022-11-13T17:59:59;101934.16;;;7.28;100.00
44359;BME280;30077;52.474;13.326;2022-11-13T18:05:00;101935.00;;;7.32;100.00
44359;BME280;30077;52.474;13.326;2022-11-13T18:10:03;101926.13;;;7.36;100.00
44359;BME280;30077;52.474;13.326;2022-11-13T18:15:03;101932.25;;;7.41;100.00
44359;BME280;30077;52.474;13.326;2022-11-13T18:20:04;101924.25;;;7.44;100.00
44359;BME280;30077;52.474;13.326;2022-11-13T18:25:05;101915.47;;;7.39;100.00
44359;BME280;30077;52.474;13.326;2022-11-13T18:30:06;101909.34;;;7.34;100.00
44359;BME280;30077;52.474;13.326;2022-11-13T18:35:07;101919.13;;;7.26;100.00
44359;BME280;30077;52.474;13.326;2022-11-13T18:40:08;101914.84;;;7.15;100.00
44359;BME280;30077;52.474;13.326;2022-11-13T18:45:09;101909.66;;;7.03;100.00
44359;BME280;30077;52.474;13.326;2022-11-13T18:50:10;101908.91;;;6.92;100.00
44359;BME280;30077;52.474;13.326;2022-11-13T18:55:12;101920.50;;;6.80;100.00
44359;BME280;30077;52.474;13.326;2022-11-13T19:00:12;101915.19;;;6.79;100.00
44359;BME280;30077;52.474;13.326;2022-11-13T19:05:14;101920.50;;;6.83;100.00
44359;BME280;30077;52.474;13.326;2022-11-13T19:10:15;101919.50;;;6.92;100.00
44359;BME280;30077;52.474;13.326;2022-11-13T19:15:16;101924.75;;;6.98;100.00
44359;BME280;30077;52.474;13.326;2022-11-13T19:20:18;101914.03;;;7.07;100.00
44359;BME280;30077;52.474;13.326;2022-11-13T19:25:20;101921.94;;;7.13;100.00
44359;BME280;30077;52.474;13.326;2022-11-13T19:30:20;101921.06;;;7.11;100.00
44359;BME280;30077;52.474;13.326;2022-11-13T19:35:24;101923.66;;;7.17;100.00
44359;BME280;30077;52.474;13.326;2022-11-13T19:40:25;101919.31;;;7.10;100.00
44359;BME280;30077;52.474;13.326;2022-11-13T19:45:25;101906.97;;;7.06;100.00
44359;BME280;30077;52.474;13.326;2022-11-13T19:50:26;101915.03;;;6.97;100.00
44359;BME280;30077;52.474;13.326;2022-11-13T19:55:27;101910.78;;;6.81;100.00
44359;BME280;30077;52.474;13.326;2022-11-13T20:00:28;101900.28;;;6.68;100.00
44359;BME280;30077;52.474;13.326;2022-11-13T20:05:28;101895.06;;;6.59;100.00
44359;BME280;30077;52.474;13.326;2022-11-13T20:10:30;101895.16;;;6.50;100.00
44359;BME280;30077;52.474;13.326;2022-11-13T20:15:31;101891.66;;;6.42;100.00
44359;BME280;30077;52.474;13.326;2022-11-13T20:20:31;101888.16;;;6.38;100.00
44359;BME280;30077;52.474;13.326;2022-11-13T20:25:31;101879.44;;;6.29;100.00
44359;BME280;30077;52.474;13.326;2022-11-13T20:30:33;101877.66;;;6.29;100.00
44359;BME280;30077;52.474;13.326;2022-11-13T20:35:33;101886.50;;;6.26;100.00
44359;BME280;30077;52.474;13.326;2022-11-13T20:40:33;101884.69;;;6.32;100.00
44359;BME280;30077;52.474;13.326;2022-11-13T20:45:34;101874.06;;;6.35;100.00
44359;BME280;30077;52.474;13.326;2022-11-13T20:50:37;101869.59;;;6.43;100.00
44359;BME280;30077;52.474;13.326;2022-11-13T20:55:38;101864.41;;;6.29;100.00
44359;BME280;30077;52.474;13.326;2022-11-13T21:00:39;101867.13;;;6.21;100.00
44359;BME280;30077;52.474;13.326;2022-11-13T21:05:40;101858.31;;;6.18;100.00
44359;BME280;30077;52.474;13.326;2022-11-13T21:10:40;101852.22;;;6.07;100.00
44359;BME280;30077;52.474;13.326;2022-11-13T21:15:40;101847.81;;;6.04;100.00
44359;BME280;30077;52.474;13.326;2022-11-13T21:20:41;101847.00;;;5.96;100.00
44359;BME280;30077;52.474;13.326;2022-11-13T21:25:41;101848.75;;;5.94;100.00
44359;BME280;30077;52.474;13.326;2022-11-13T21:30:42;101853.16;;;5.95;100.00
44359;BME280;30077;52.474;13.326;2022-11-13T21:35:42;101853.13;;;5.92;100.00
44359;BME280;30077;52.474;13.326;2022-11-13T21:40:42;101855.84;;;5.87;100.00
44359;BME280;30077;52.474;13.326;2022-11-13T21:45:43;101851.47;;;5.85;100.00
44359;BME280;30077;52.474;13.326;2022-11-13T21:50:45;101843.47;;;5.86;100.00
44359;BME280;30077;52.474;13.326;2022-11-13T21:55:49;101840.88;;;5.82;100.00
44359;BME280;30077;52.474;13.326;2022-11-13T22:00:50;101836.47;;;5.82;100.00
44359;BME280;30077;52.474;13.326;2022-11-13T22:06:31;101827.63;;;5.80;100.00
44359;BME280;30077;52.474;13.326;2022-11-13T22:11:33;101828.50;;;5.80;100.00
44359;BME280;30077;52.474;13.326;2022-11-13T22:16:38;101833.78;;;5.80;100.00
44359;BME280;30077;52.474;13.326;2022-11-13T22:21:40;101821.44;;;5.83;100.00
44359;BME280;30077;52.474;13.326;2022-11-13T22:26:42;101813.47;;;5.84;100.00
44359;BME280;30077;52.474;13.326;2022-11-13T22:31:51;101813.47;;;5.87;100.00
44359;BME280;30077;52.474;13.326;2022-11-13T22:36:52;101805.50;;;5.87;100.00
44359;BME280;30077;52.474;13.326;2022-11-13T22:41:52;101784.34;;;5.89;100.00
44359;BME280;30077;52.474;13.326;2022-11-13T22:46:53;101788.75;;;5.88;100.00
44359;BME280;30077;52.474;13.326;2022-11-13T22:51:54;101783.41;;;5.91;100.00
44359;BME280;30077;52.474;13.326;2022-11-13T22:56:54;101773.75;;;5.89;100.00
44359;BME280;30077;52.474;13.326;2022-11-13T23:01:56;101765.78;;;5.93;100.00
44359;BME280;30077;52.474;13.326;2022-11-13T23:06:57;101762.22;;;5.96;100.00
44359;BME280;30077;52.474;13.326;2022-11-13T23:11:57;101764.84;;;5.99;100.00
44359;BME280;30077;52.474;13.326;2022-11-13T23:16:58;101770.97;;;6.02;100.00
44359;BME280;30077;52.474;13.326;2022-11-13T23:21:59;101775.41;;;6.02;100.00
44359;BME280;30077;52.474;13.326;2022-11-13T23:26:59;101756.88;;;6.00;100.00
44359;BME280;30077;52.474;13.326;2022-11-13T23:32:00;101766.63;;;5.97;100.00
44359;BME280;30077;52.474;13.326;2022-11-13T23:37:00;101763.09;;;5.98;100.00
44359;BME280;30077;52.474;13.326;2022-11-13T23:42:02;101756.03;;;5.97;100.00
44359;BME280;30077;52.474;13.326;2022-11-13T23:47:02;101753.38;;;5.98;100.00
44359;BME280;30077;52.474;13.326;2022-11-13T23:52:03;101749.00;;;5.96;100.00
44359;BME280;30077;52.474;13.326;2022-11-13T23:57:03;101740.16;;;5.94;100.00
